Albion, New York
Current Conditions -  °F | °C
As of 7:54 AM on Friday 28 Nov 2014 (Local Time) from KROC Reporting Station
Light Snow Light Snow  
Wind Chill: -11°   Ceiling: 5000
Heat Index: -4°   Visibility: 4mi
Dew Point: -8°   Wind: 14mph
Humidity: 75%   Direction: 260°W
Pressure: 30.22"   Gusts: NA
Location:  43.25°N, 78.19°W
Report Text: KROC 281254Z 26012KT 4SM -SN BKN050 OVC100 M04/M08 A3022 RMK AO2 SLP245 P0000 T10441083
Loading
Personal Weather Stations






























Interactive Weather Map New forecast layout! Learn more

10-Day Weather Forecast

Advertisements
Track Severe Weather on mobile